Terminal Aerodrome Forecast
Issued by NWS

Home | Current Version | Previous Version | Text Only | Print | Product List | Glossary On
Versions: 1 2 3 4 5 6 7 8 9 10 11 12 13 14 15 16
000
FTUS43 KTOP 241409 AAA
TAFMHK
TAF AMD
KMHK 241409Z 2414/2512 21010KT P6SM VCSH FEW040 BKN200
     FM241800 33006KT P6SM VCTS BKN040CB
     FM250000 VRB03KT 6SM -TSRA SCT015 BKN040CB=

USA.gov is the U.S. government's official web portal to all federal, state and local government web resources and services.